Time;durP1;ratioP1;P1;durP2;ratioP2;P2;SDS_P1;SDS_P2;PMS_P1;PMS_P2;Temp;Humidity;BMP_temperature;BMP_pressure;BME280_temperature;BME280_humidity;BME280_pressure;Samples;Min_cycle;Max_cycle;Signal;HPM_P1;HPM_P2
2021/09/14 00:00:10;;;;;;;6.40;3.30;;;;;;;11.54;94.07;101156.50;110826;1207;62273;-77
2021/09/14 00:02:37;;;;;;;6.40;3.00;;;;;;;11.52;94.52;101157.98;110836;1208;71429;-77
2021/09/14 00:05:05;;;;;;;5.50;3.20;;;;;;;11.51;94.81;101156.85;110864;1208;72631;-78
2021/09/14 00:07:31;;;;;;;12.20;4.00;;;;;;;11.49;94.63;101156.52;111044;1207;61826;-77
2021/09/14 00:09:59;;;;;;;5.20;2.90;;;;;;;11.45;94.54;101153.11;110857;1199;61877;-77
2021/09/14 00:12:26;;;;;;;5.40;2.90;;;;;;;11.40;94.51;101154.34;110925;1208;77309;-77
2021/09/14 00:14:52;;;;;;;5.40;2.90;;;;;;;11.36;94.39;101154.30;110862;1208;71925;-77
2021/09/14 00:17:19;;;;;;;5.10;2.80;;;;;;;11.33;94.50;101151.58;110871;1206;73585;-77
2021/09/14 00:19:48;;;;;;;4.60;2.40;;;;;;;11.31;94.80;101152.50;110846;1199;62784;-78
2021/09/14 00:22:15;;;;;;;4.60;2.70;;;;;;;11.32;95.16;101151.34;111694;1203;61862;-77
2021/09/14 00:24:44;;;;;;;7.70;2.60;;;;;;;11.33;95.06;101149.85;110844;1203;75337;-78
2021/09/14 00:27:10;;;;;;;6.10;3.10;;;;;;;11.32;94.75;101152.23;111051;1208;71148;-78
2021/09/14 00:29:37;;;;;;;4.40;2.90;;;;;;;11.32;95.01;101150.98;110897;1206;61982;-78
2021/09/14 00:32:04;;;;;;;5.50;3.00;;;;;;;11.31;94.76;101152.50;110895;1208;61898;-78
2021/09/14 00:34:30;;;;;;;5.00;2.60;;;;;;;11.31;94.93;101150.38;110796;1209;61869;-78
2021/09/14 00:36:57;;;;;;;5.30;3.30;;;;;;;11.28;94.66;101149.09;110807;1208;61957;-77
2021/09/14 00:39:23;;;;;;;5.70;3.00;;;;;;;11.27;94.81;101150.13;110836;1207;62145;-78
2021/09/14 00:41:49;;;;;;;6.10;2.90;;;;;;;11.26;94.77;101147.86;110807;1208;61931;-78
2021/09/14 00:44:29;;;;;;;5.50;2.40;;;;;;;11.26;94.93;101147.02;111084;1208;62626;-78
2021/09/14 00:46:55;;;;;;;5.00;2.60;;;;;;;11.27;94.77;101149.29;111081;1198;62850;-77
2021/09/14 00:49:27;;;;;;;4.10;2.50;;;;;;;11.25;94.57;101147.89;110912;1207;61878;-78
2021/09/14 00:51:56;;;;;;;6.50;2.70;;;;;;;11.22;94.70;101144.41;110953;1203;69801;-78
2021/09/14 00:54:25;;;;;;;3.50;2.30;;;;;;;11.20;95.08;101137.02;111389;1208;74797;-79
2021/09/14 00:56:55;;;;;;;5.40;3.20;;;;;;;11.21;95.03;101137.84;111111;1201;61945;-78
2021/09/14 00:59:21;;;;;;;7.50;3.40;;;;;;;11.18;94.64;101139.57;111349;1203;61876;-78
2021/09/14 01:01:47;;;;;;;5.90;3.20;;;;;;;11.16;94.98;101132.90;110942;1207;61900;-78
2021/09/14 01:04:15;;;;;;;6.70;3.10;;;;;;;11.15;94.98;101131.42;110969;1203;72200;-79
2021/09/14 01:06:41;;;;;;;6.90;2.90;;;;;;;11.14;95.09;101132.98;110893;1207;73654;-78
2021/09/14 01:09:09;;;;;;;8.00;2.60;;;;;;;11.13;95.26;101129.15;110888;1206;62017;-78
2021/09/14 01:11:36;;;;;;;7.10;2.70;;;;;;;11.14;95.52;101130.15;110938;1207;62745;-77
2021/09/14 01:14:09;;;;;;;5.00;2.70;;;;;;;11.15;95.71;101125.57;110931;1209;61848;-76
2021/09/14 01:16:38;;;;;;;9.50;2.60;;;;;;;11.15;95.54;101121.20;110953;1200;72324;-76
2021/09/14 01:19:07;;;;;;;6.80;3.50;;;;;;;11.12;95.39;101117.60;111183;1207;72635;-78
2021/09/14 01:21:34;;;;;;;7.10;3.20;;;;;;;11.09;95.41;101117.41;111581;1198;62929;-77
2021/09/14 01:24:01;;;;;;;8.80;2.90;;;;;;;11.09;95.63;101115.28;113789;1199;60455;-78
2021/09/14 01:26:28;;;;;;;6.50;3.00;;;;;;;11.10;95.94;101114.45;110948;1207;75134;-78
2021/09/14 01:29:03;;;;;;;7.40;3.30;;;;;;;11.10;96.02;101116.35;110842;1208;71103;-78
2021/09/14 01:31:33;;;;;;;7.10;3.60;;;;;;;11.14;96.31;101117.90;110980;1208;72623;-78
2021/09/14 01:34:00;;;;;;;5.50;3.30;;;;;;;11.15;95.83;101115.19;110918;1208;62274;-78
2021/09/14 01:37:01;;;;;;;8.00;3.60;;;;;;;11.14;95.87;101111.20;110821;1206;61857;-78
2021/09/14 01:39:27;;;;;;;10.60;4.00;;;;;;;11.15;96.28;101113.02;110860;1207;75492;-78
2021/09/14 01:41:54;;;;;;;6.80;3.20;;;;;;;11.15;96.51;101113.14;110854;1207;61999;-78
2021/09/14 01:44:20;;;;;;;7.00;4.00;;;;;;;11.16;96.68;101113.82;110887;1206;61888;-78
2021/09/14 01:46:48;;;;;;;6.80;3.60;;;;;;;11.15;96.67;101115.64;110858;1199;61914;-77
2021/09/14 01:49:14;;;;;;;10.70;3.70;;;;;;;11.15;96.87;101111.04;110970;1207;61828;-79
2021/09/14 01:51:41;;;;;;;8.70;4.10;;;;;;;11.13;96.59;101108.02;110860;1207;61831;-78
2021/09/14 01:54:07;;;;;;;8.00;4.10;;;;;;;11.12;96.69;101109.45;110937;1207;61776;-78
2021/09/14 01:56:34;;;;;;;8.30;3.70;;;;;;;11.10;96.64;101107.72;110873;1208;61892;-78
2021/09/14 01:59:00;;;;;;;9.70;3.40;;;;;;;11.08;96.57;101105.80;111009;1207;61874;-78
2021/09/14 02:01:31;;;;;;;5.20;3.20;;;;;;;11.07;96.62;101107.89;110839;1208;62013;-78
2021/09/14 02:04:06;;;;;;;6.70;3.70;;;;;;;11.07;96.78;101105.77;110964;1207;75385;-79
2021/09/14 02:41:59;;;;;;;8.70;3.60;;;;;;;10.94;97.31;101094.63;111043;1208;61800;-77
2021/09/14 03:01:05;;;;;;;9.70;3.90;;;;;;;10.81;97.49;101084.28;111063;1205;71556;-78
2021/09/14 03:03:32;;;;;;;8.60;3.70;;;;;;;10.80;97.65;101084.75;110950;1203;73192;-78
2021/09/14 03:05:58;;;;;;;7.70;3.70;;;;;;;10.80;97.76;101086.73;110785;1205;62697;-78
2021/09/14 03:08:26;;;;;;;8.10;3.80;;;;;;;10.78;97.64;101090.65;110739;1205;61936;-79
2021/09/14 03:10:53;;;;;;;5.90;3.60;;;;;;;10.78;98.16;101092.42;110740;1205;76553;-79
2021/09/14 03:13:42;;;;;;;7.60;3.30;;;;;;;10.81;98.42;101095.14;110915;1198;61874;-78
2021/09/14 03:16:14;;;;;;;8.20;3.90;;;;;;;10.83;98.52;101095.67;110883;1207;73612;-78
2021/09/14 03:18:42;;;;;;;11.00;4.20;;;;;;;10.85;98.59;101097.19;110916;1207;61972;-78
2021/09/14 03:21:11;;;;;;;7.20;3.70;;;;;;;10.84;98.25;101092.65;111100;1206;61898;-78
2021/09/14 03:23:37;;;;;;;8.20;4.40;;;;;;;10.85;98.41;101094.21;111046;1203;76394;-78
2021/09/14 03:26:04;;;;;;;8.10;4.10;;;;;;;10.86;98.61;101093.02;110844;1206;71051;-79
2021/09/14 03:28:31;;;;;;;8.90;4.30;;;;;;;10.86;98.54;101094.91;111527;1205;72635;-79
2021/09/14 03:30:57;;;;;;;7.00;3.80;;;;;;;10.85;98.21;101093.64;111267;1205;61909;-78
2021/09/14 03:33:24;;;;;;;12.20;4.50;;;;;;;10.84;98.17;101092.17;111253;1205;61827;-79
2021/09/14 03:35:51;;;;;;;9.50;3.80;;;;;;;10.85;98.25;101090.29;110916;1205;76568;-78
2021/09/14 03:38:18;;;;;;;5.70;3.60;;;;;;;10.86;98.16;101089.79;110867;1206;71112;-77
2021/09/14 03:40:44;;;;;;;5.60;3.40;;;;;;;10.87;98.29;101085.08;110970;1207;61899;-78
2021/09/14 03:43:13;;;;;;;6.40;3.60;;;;;;;10.87;97.93;101083.16;110928;1206;61786;-78
2021/09/14 03:45:44;;;;;;;7.90;4.10;;;;;;;10.87;98.34;101084.19;111646;1198;61856;-79
2021/09/14 03:48:11;;;;;;;8.70;3.30;;;;;;;10.88;98.16;101085.65;111384;1206;75799;-79
2021/09/14 03:50:37;;;;;;;6.50;3.90;;;;;;;10.86;97.79;101084.19;111170;1207;71570;-79
2021/09/14 03:53:05;;;;;;;6.70;4.10;;;;;;;10.83;97.84;101080.08;110970;1200;72606;-79
2021/09/14 03:55:32;;;;;;;7.70;4.40;;;;;;;10.82;98.12;101078.24;110891;1207;61793;-78
2021/09/14 03:57:58;;;;;;;7.10;4.00;;;;;;;10.78;97.98;101079.48;110732;1206;62284;-77
2021/09/14 04:00:25;;;;;;;7.90;3.40;;;;;;;10.77;98.10;101080.45;111024;1206;61886;-79
2021/09/14 04:03:09;;;;;;;6.40;3.70;;;;;;;10.77;98.12;101077.73;110912;1206;72068;-78
2021/09/14 04:08:54;;;;;;;6.80;3.40;;;;;;;10.74;97.86;101076.46;111033;1198;61958;-78
2021/09/14 04:11:22;;;;;;;10.90;4.50;;;;;;;10.74;98.18;101074.31;110916;1205;61892;-80
2021/09/14 04:13:50;;;;;;;7.00;5.00;;;;;;;10.74;97.90;101072.68;111179;1207;75560;-79
2021/09/14 04:16:18;;;;;;;7.70;3.70;;;;;;;10.73;97.90;101072.59;110935;1205;71882;-79
2021/09/14 04:18:45;;;;;;;8.60;3.80;;;;;;;10.71;97.98;101069.81;111554;1206;71758;-79
2021/09/14 04:21:17;;;;;;;12.30;4.90;;;;;;;10.71;98.24;101071.05;111436;1206;61884;-79
2021/09/14 04:23:46;;;;;;;8.60;4.20;;;;;;;10.69;97.83;101076.38;111081;1206;60449;-78
2021/09/14 04:26:22;;;;;;;9.40;4.30;;;;;;;10.69;97.77;101071.15;111127;1206;74511;-79
2021/09/14 04:28:48;;;;;;;7.40;3.40;;;;;;;10.67;97.51;101072.02;111033;1206;71138;-80
2021/09/14 04:31:16;;;;;;;9.10;3.60;;;;;;;10.66;97.54;101072.75;110937;1206;73479;-79
2021/09/14 04:33:42;;;;;;;7.30;3.50;;;;;;;10.66;98.19;101073.55;110895;1202;125957;-76
2021/09/14 04:36:08;;;;;;;9.80;4.10;;;;;;;10.68;98.01;101066.45;110756;1207;61912;-76
2021/09/14 04:38:36;;;;;;;6.00;3.60;;;;;;;10.68;97.77;101065.10;110553;1205;61873;-77
2021/09/14 04:41:02;;;;;;;6.70;3.60;;;;;;;10.67;97.60;101067.80;110750;1203;72617;-77
2021/09/14 04:43:29;;;;;;;9.40;4.40;;;;;;;10.66;97.51;101068.27;110690;1205;61924;-76
2021/09/14 04:45:55;;;;;;;6.60;3.90;;;;;;;10.64;97.49;101074.31;110624;1206;61985;-77
2021/09/14 04:48:22;;;;;;;12.70;4.30;;;;;;;10.63;97.93;101073.91;110803;1206;62026;-77
2021/09/14 04:50:49;;;;;;;6.30;3.70;;;;;;;10.62;98.01;101075.44;110787;1205;61901;-74
2021/09/14 04:53:15;;;;;;;9.90;4.40;;;;;;;10.60;97.85;101073.62;110738;1205;61906;-77
2021/09/14 04:55:42;;;;;;;8.80;3.90;;;;;;;10.58;97.68;101072.79;110618;1205;62552;-77
2021/09/14 04:58:08;;;;;;;10.60;3.80;;;;;;;10.55;97.75;101070.09;110798;1200;61879;-75
2021/09/14 05:00:35;;;;;;;6.70;4.20;;;;;;;10.53;97.90;101070.13;110671;1205;61919;-76
2021/09/14 05:03:01;;;;;;;8.40;4.00;;;;;;;10.52;98.02;101068.54;110905;1205;61880;-76
2021/09/14 05:05:28;;;;;;;6.60;3.80;;;;;;;10.51;98.14;101066.52;110692;1207;61974;-76
2021/09/14 05:07:55;;;;;;;6.40;3.50;;;;;;;10.50;98.25;101067.18;110615;1205;61896;-77
2021/09/14 05:10:21;;;;;;;8.00;3.20;;;;;;;10.50;98.49;101065.75;110747;1205;61883;-75
2021/09/14 05:12:48;;;;;;;7.30;3.80;;;;;;;10.51;98.44;101067.08;110645;1205;61898;-76
2021/09/14 05:15:14;;;;;;;6.30;3.50;;;;;;;10.50;98.18;101062.15;110668;1205;62700;-76
2021/09/14 05:17:41;;;;;;;6.00;3.90;;;;;;;10.49;98.06;101063.52;110707;1206;61870;-77
2021/09/14 05:20:08;;;;;;;6.40;4.00;;;;;;;10.45;97.86;101063.98;110608;1205;61921;-76
2021/09/14 05:22:34;;;;;;;8.30;3.70;;;;;;;10.42;97.91;101064.65;110892;1206;61901;-75
2021/09/14 05:25:03;;;;;;;7.20;4.20;;;;;;;10.41;98.54;101064.71;110911;1202;61806;-76
2021/09/14 05:27:29;;;;;;;9.70;4.10;;;;;;;10.44;98.76;101058.78;110791;1205;75290;-76
2021/09/14 05:29:56;;;;;;;7.50;3.90;;;;;;;10.47;98.82;101057.95;110807;1206;71185;-76
2021/09/14 05:32:23;;;;;;;6.10;3.70;;;;;;;10.48;98.51;101055.71;110913;1205;73979;-77
2021/09/14 05:34:50;;;;;;;7.00;3.70;;;;;;;10.47;98.37;101053.45;110856;1205;62610;-77
2021/09/14 05:37:18;;;;;;;6.90;4.00;;;;;;;10.49;98.65;101054.16;110901;1205;61915;-76
2021/09/14 05:39:45;;;;;;;7.90;4.10;;;;;;;10.53;99.06;101048.27;110685;1205;75369;-76
2021/09/14 05:42:11;;;;;;;9.50;3.80;;;;;;;10.57;99.13;101048.19;110726;1205;72436;-77
2021/09/14 05:44:38;;;;;;;7.50;3.80;;;;;;;10.61;99.22;101047.05;110777;1206;61991;-76
2021/09/14 05:47:05;;;;;;;8.70;3.60;;;;;;;10.67;99.26;101052.29;110809;1205;61877;-75
2021/09/14 05:49:31;;;;;;;8.00;4.20;;;;;;;10.70;99.00;101050.63;110982;1205;61898;-75
2021/09/14 05:51:59;;;;;;;6.70;3.80;;;;;;;10.75;99.42;101049.96;110833;1206;76680;-76
2021/09/14 05:54:26;;;;;;;10.30;3.90;;;;;;;10.81;99.52;101045.94;110723;1205;72252;-75
2021/09/14 05:56:52;;;;;;;13.10;4.90;;;;;;;10.86;99.30;101047.30;110783;1205;72928;-76
2021/09/14 05:59:19;;;;;;;9.00;4.30;;;;;;;10.91;99.06;101043.05;110628;1205;62907;-76
2021/09/14 06:01:45;;;;;;;7.50;4.10;;;;;;;10.97;98.99;101044.15;110751;1205;61931;-75
2021/09/14 06:04:12;;;;;;;9.00;4.80;;;;;;;11.04;99.38;101041.42;110755;1205;61893;-74
2021/09/14 06:06:38;;;;;;;5.10;3.40;;;;;;;11.13;99.35;101038.55;110793;1205;61857;-75
2021/09/14 06:09:05;;;;;;;8.40;4.70;;;;;;;11.21;99.24;101041.55;110780;1206;61952;-75
2021/09/14 06:11:31;;;;;;;8.70;3.90;;;;;;;11.28;99.06;101041.95;110763;1206;61871;-75
2021/09/14 06:13:58;;;;;;;11.40;4.70;;;;;;;11.35;98.78;101039.08;110730;1205;61883;-76
2021/09/14 06:16:24;;;;;;;8.90;4.20;;;;;;;11.42;98.62;101040.21;110565;1206;61866;-76
2021/09/14 06:18:51;;;;;;;8.40;5.00;;;;;;;11.49;98.45;101045.20;110734;1198;61814;-74
2021/09/14 06:21:17;;;;;;;9.50;4.50;;;;;;;11.56;98.55;101046.42;110852;1206;61987;-75
2021/09/14 06:23:44;;;;;;;8.20;4.70;;;;;;;11.64;98.50;101045.36;110866;1205;61825;-75
2021/09/14 06:26:10;;;;;;;8.30;3.90;;;;;;;11.72;98.50;101047.65;110871;1206;61886;-76
2021/09/14 06:28:37;;;;;;;9.00;4.20;;;;;;;11.78;98.29;101047.86;110856;1205;61801;-76
2021/09/14 06:31:03;;;;;;;8.90;4.70;;;;;;;11.86;98.02;101043.46;110882;1205;61826;-75
2021/09/14 06:33:30;;;;;;;9.90;4.60;;;;;;;11.93;97.93;101041.77;110813;1206;61902;-75
2021/09/14 06:35:56;;;;;;;7.50;3.80;;;;;;;11.99;97.59;101046.04;110865;1206;62432;-76
2021/09/14 06:38:23;;;;;;;9.20;4.00;;;;;;;12.07;97.89;101047.66;111550;1200;61988;-75
2021/09/14 06:40:50;;;;;;;7.90;4.30;;;;;;;12.18;97.89;101048.52;110953;1206;61876;-76
2021/09/14 06:43:16;;;;;;;9.70;4.40;;;;;;;12.29;97.74;101046.55;110930;1206;62979;-75
2021/09/14 06:45:43;;;;;;;9.00;4.50;;;;;;;12.41;97.69;101041.89;110953;1205;61886;-75
2021/09/14 06:48:13;;;;;;;9.80;3.70;;;;;;;12.52;97.32;101033.56;111076;1206;61894;-76
2021/09/14 06:50:40;;;;;;;9.20;4.60;;;;;;;12.65;97.42;101027.75;110854;1207;61909;-78
2021/09/14 06:53:07;;;;;;;9.10;4.20;;;;;;;12.77;97.17;101024.74;110982;1205;61901;-76
2021/09/14 06:55:33;;;;;;;6.30;2.60;;;;;;;12.89;97.20;101027.09;111116;1205;61876;-78
2021/09/14 06:58:00;;;;;;;9.70;5.80;;;;;;;12.96;96.62;101027.73;110977;1206;61976;-78
2021/09/14 07:00:27;;;;;;;8.80;4.80;;;;;;;13.03;96.49;101024.36;111027;1198;62878;-75
2021/09/14 07:02:53;;;;;;;8.20;4.50;;;;;;;13.13;96.23;101023.17;110935;1206;61889;-77
2021/09/14 07:05:20;;;;;;;7.90;4.50;;;;;;;13.23;95.91;101023.36;110956;1205;61908;-75
2021/09/14 07:07:46;;;;;;;8.30;4.80;;;;;;;13.33;95.71;101020.25;111099;1205;61928;-77
2021/09/14 07:10:13;;;;;;;8.70;4.10;;;;;;;13.43;95.29;101021.23;111063;1207;61896;-79
2021/09/14 07:12:40;;;;;;;7.70;4.50;;;;;;;13.53;94.90;101021.15;111113;1205;62773;-77
2021/09/14 07:15:07;;;;;;;8.00;4.10;;;;;;;13.61;94.83;101022.84;111373;1199;61890;-77
2021/09/14 07:17:37;;;;;;;5.70;3.80;;;;;;;13.69;94.93;101023.02;111449;1205;76061;-77
2021/09/14 07:20:07;;;;;;;6.70;3.70;;;;;;;13.78;94.44;101021.20;111376;1205;71924;-78
2021/09/14 07:22:34;;;;;;;8.90;4.90;;;;;;;13.87;94.36;101024.58;112518;1199;72647;-77
2021/09/14 07:25:01;;;;;;;8.60;4.90;;;;;;;13.96;94.23;101021.31;111345;1206;62081;-76
2021/09/14 07:27:28;;;;;;;11.30;4.00;;;;;;;14.07;93.98;101025.16;111419;1198;61851;-76
2021/09/14 07:29:55;;;;;;;9.00;4.80;;;;;;;14.17;93.74;101029.48;111115;1206;61872;-75
2021/09/14 07:32:21;;;;;;;11.30;5.50;;;;;;;14.28;93.76;101022.33;113302;1205;70985;-76
2021/09/14 07:34:48;;;;;;;10.50;5.40;;;;;;;14.42;93.36;101024.21;112007;1205;61828;-76
2021/09/14 07:37:15;;;;;;;9.50;4.90;;;;;;;14.53;93.13;101023.13;110788;1206;62659;-74
2021/09/14 07:39:42;;;;;;;6.70;4.20;;;;;;;14.63;92.41;101022.40;110789;1199;62460;-76
2021/09/14 07:42:08;;;;;;;8.00;4.10;;;;;;;14.73;92.04;101023.87;110679;1206;61901;-78
2021/09/14 07:44:36;;;;;;;7.60;5.00;;;;;;;14.83;91.73;101025.70;110949;1203;62852;-75
2021/09/14 07:47:02;;;;;;;10.10;4.80;;;;;;;14.92;91.52;101020.64;110747;1200;72501;-76
2021/09/14 07:49:29;;;;;;;7.40;3.90;;;;;;;15.02;91.59;101023.05;110660;1206;62323;-77
2021/09/14 07:51:55;;;;;;;8.10;4.90;;;;;;;15.11;90.45;101025.67;110724;1206;61888;-75
2021/09/14 07:54:22;;;;;;;12.60;6.40;;;;;;;15.16;90.29;101024.52;110688;1206;61941;-77
2021/09/14 07:56:49;;;;;;;9.50;5.80;;;;;;;15.24;90.45;101025.02;110577;1206;71164;-74
2021/09/14 07:59:16;;;;;;;8.30;5.10;;;;;;;15.36;90.54;101027.47;110616;1205;61982;-76
2021/09/14 08:01:42;;;;;;;10.90;5.40;;;;;;;15.47;89.81;101029.73;111109;1205;63100;-77
2021/09/14 08:04:09;;;;;;;8.80;5.10;;;;;;;15.56;89.79;101028.79;110635;1200;61789;-77
2021/09/14 08:06:35;;;;;;;8.50;4.60;;;;;;;15.66;89.47;101028.86;110539;1206;61912;-75
2021/09/14 08:09:02;;;;;;;11.00;4.80;;;;;;;15.78;89.24;101027.75;110511;1206;61880;-76
2021/09/14 08:11:33;;;;;;;11.60;5.00;;;;;;;15.91;88.96;101025.80;110724;1205;72349;-74
2021/09/14 08:13:59;;;;;;;7.30;4.90;;;;;;;16.04;88.50;101027.14;110742;1199;61907;-76
2021/09/14 08:16:26;;;;;;;8.60;5.10;;;;;;;16.14;88.17;101027.50;110678;1205;61868;-75
2021/09/14 08:18:53;;;;;;;10.70;6.10;;;;;;;16.23;88.14;101025.83;110700;1205;75282;-77
2021/09/14 08:21:20;;;;;;;8.10;4.50;;;;;;;16.38;88.10;101022.51;110582;1206;71271;-76
2021/09/14 08:23:46;;;;;;;7.50;4.90;;;;;;;16.51;87.52;101024.31;110845;1200;72226;-76
2021/09/14 08:26:13;;;;;;;9.70;4.70;;;;;;;16.63;87.02;101024.59;110615;1205;61819;-76
2021/09/14 08:28:39;;;;;;;12.10;6.10;;;;;;;16.76;86.32;101026.09;111593;1205;61747;-75
2021/09/14 08:31:06;;;;;;;12.20;6.80;;;;;;;16.89;85.43;101023.53;111162;1206;61913;-75
2021/09/14 08:33:33;;;;;;;9.70;6.30;;;;;;;17.03;85.88;101021.27;111138;1198;71910;-76
2021/09/14 08:35:59;;;;;;;12.70;7.80;;;;;;;17.20;85.55;101019.48;110683;1205;61890;-75
2021/09/14 08:38:27;;;;;;;8.20;5.10;;;;;;;17.37;84.61;101022.09;110758;1205;62801;-77
2021/09/14 08:40:55;;;;;;;9.60;6.10;;;;;;;17.49;83.69;101022.00;110765;1205;61850;-77
2021/09/14 08:43:22;;;;;;;9.50;4.40;;;;;;;17.64;83.13;101018.97;110678;1205;75245;-76
2021/09/14 08:45:50;;;;;;;13.00;5.20;;;;;;;17.76;82.45;101014.58;110633;1205;62465;-75
2021/09/14 08:48:24;;;;;;;10.00;5.10;;;;;;;17.86;81.36;101013.69;110708;1205;72538;-75
2021/09/14 08:50:51;;;;;;;11.30;5.70;;;;;;;17.92;80.33;101012.91;110719;1205;61894;-74
2021/09/14 08:53:17;;;;;;;7.90;4.30;;;;;;;17.98;80.47;101011.17;110718;1205;61889;-75
2021/09/14 08:55:44;;;;;;;10.20;5.40;;;;;;;18.09;80.35;101018.54;110723;1206;75626;-77
2021/09/14 08:58:13;;;;;;;10.20;5.20;;;;;;;18.18;79.22;101017.33;110641;1205;61849;-77
2021/09/14 09:00:44;;;;;;;8.70;5.90;;;;;;;18.23;78.59;101015.52;110679;1205;72330;-77
2021/09/14 09:03:11;;;;;;;9.60;6.20;;;;;;;18.33;78.72;101016.27;110719;1206;62893;-75
2021/09/14 09:05:39;;;;;;;8.50;5.40;;;;;;;18.47;78.49;101017.80;110627;1199;61879;-76
2021/09/14 09:08:21;;;;;;;6.80;4.30;;;;;;;18.60;78.30;101017.32;110878;1205;75665;-77
2021/09/14 09:11:09;;;;;;;7.90;4.80;;;;;;;18.70;76.66;101013.76;110594;1205;72372;-75
2021/09/14 09:13:44;;;;;;;8.60;6.10;;;;;;;18.79;76.67;101011.01;110736;1205;72517;-76
2021/09/14 09:16:22;;;;;;;7.00;4.70;;;;;;;18.89;76.71;101009.35;110829;1205;61880;-75
2021/09/14 09:18:52;;;;;;;7.10;5.30;;;;;;;18.99;75.75;101008.42;110837;1199;61894;-76
2021/09/14 09:21:26;;;;;;;7.10;4.60;;;;;;;19.08;76.01;101002.04;110673;1206;75430;-75
2021/09/14 09:24:01;;;;;;;8.00;5.80;;;;;;;19.20;75.71;101000.92;110669;1206;71173;-76
2021/09/14 09:26:37;;;;;;;7.80;5.70;;;;;;;19.32;75.49;101001.48;110628;1200;72588;-77
2021/09/14 09:29:05;;;;;;;5.40;3.70;;;;;;;19.42;74.92;100997.05;110821;1200;62342;-76
2021/09/14 09:31:34;;;;;;;4.20;3.20;;;;;;;19.52;74.74;100997.99;110779;1205;61890;-75
2021/09/14 09:34:05;;;;;;;5.90;3.80;;;;;;;19.61;73.93;100995.60;110741;1205;75464;-76
2021/09/14 09:36:39;;;;;;;6.60;3.70;;;;;;;19.70;73.77;100997.60;110926;1205;71167;-75
2021/09/14 09:39:11;;;;;;;7.00;5.30;;;;;;;19.82;73.38;100994.31;110877;1206;73747;-74
2021/09/14 09:41:49;;;;;;;11.70;5.10;;;;;;;19.94;73.54;100993.51;110641;1205;61822;-76
2021/09/14 09:44:16;;;;;;;6.10;3.20;;;;;;;20.08;73.48;101001.42;110572;1206;61783;-74
2021/09/14 09:46:42;;;;;;;7.40;5.60;;;;;;;20.21;72.76;101002.22;110658;1206;61893;-76
2021/09/14 09:49:09;;;;;;;7.40;4.60;;;;;;;20.39;72.73;101000.44;110677;1205;62780;-74
2021/09/14 09:51:38;;;;;;;5.10;4.00;;;;;;;20.54;72.10;100997.83;110811;1206;72596;-75
2021/09/14 09:54:05;;;;;;;10.50;4.30;;;;;;;20.67;71.29;100995.26;110918;1198;61924;-76
2021/09/14 09:56:33;;;;;;;10.50;5.80;;;;;;;20.75;70.32;100991.11;110571;1201;62068;-75
2021/09/14 09:59:04;;;;;;;7.40;4.70;;;;;;;20.85;70.99;100989.71;110774;1206;75246;-76
2021/09/14 10:01:33;;;;;;;9.70;5.00;;;;;;;20.97;70.24;100982.84;110574;1205;71996;-76
2021/09/14 10:04:10;;;;;;;8.30;4.70;;;;;;;21.09;69.43;100979.94;110732;1205;73367;-74
2021/09/14 10:06:57;;;;;;;9.70;8.20;;;;;;;21.17;68.18;100974.85;110718;1206;61871;-74
2021/09/14 10:09:31;;;;;;;5.80;4.00;;;;;;;21.29;68.14;100970.77;110747;1206;61924;-78
2021/09/14 10:11:58;;;;;;;6.70;4.50;;;;;;;21.44;68.35;100971.70;110700;1205;76563;-76
2021/09/14 10:14:25;;;;;;;6.70;4.20;;;;;;;21.57;66.52;100964.82;110747;1205;71621;-74
2021/09/14 10:16:51;;;;;;;7.40;5.40;;;;;;;21.65;65.64;100962.36;110764;1205;72215;-75
2021/09/14 10:19:27;;;;;;;7.80;4.30;;;;;;;21.69;65.31;100958.17;110698;1205;62506;-78
2021/09/14 10:22:12;;;;;;;6.20;4.20;;;;;;;21.74;65.56;100957.30;110682;1198;61903;-75
2021/09/14 10:25:01;;;;;;;7.70;4.40;;;;;;;21.84;64.48;100955.42;110896;1206;75890;-77
2021/09/14 10:27:40;;;;;;;8.00;4.40;;;;;;;21.96;64.17;100952.76;110993;1205;71115;-78
2021/09/14 10:30:09;;;;;;;5.40;3.50;;;;;;;22.03;63.74;100948.11;110800;1206;72683;-77
2021/09/14 10:32:38;;;;;;;5.40;3.50;;;;;;;22.11;64.12;100949.20;110721;1205;61918;-78
2021/09/14 10:35:05;;;;;;;6.80;3.80;;;;;;;22.19;62.38;100945.64;110879;1206;61814;-77
2021/09/14 10:37:32;;;;;;;6.80;3.60;;;;;;;22.29;62.86;100940.67;110698;1206;75174;-77
2021/09/14 10:40:25;;;;;;;4.70;3.70;;;;;;;22.42;63.31;100935.89;110750;1201;62780;-78
2021/09/14 10:42:58;;;;;;;6.20;3.90;;;;;;;22.65;63.29;100937.73;110779;1205;72998;-74
2021/09/14 10:45:25;;;;;;;4.90;3.50;;;;;;;22.83;62.13;100939.49;110710;1205;61872;-75
2021/09/14 10:47:53;;;;;;;4.80;2.90;;;;;;;22.95;61.13;100937.96;110823;1198;61896;-74
2021/09/14 10:50:30;;;;;;;5.20;3.50;;;;;;;23.06;60.85;100937.05;110851;1205;75926;-74
2021/09/14 10:53:01;;;;;;;6.00;3.10;;;;;;;23.21;59.98;100935.65;110932;1206;71101;-75
2021/09/14 10:55:30;;;;;;;6.00;3.70;;;;;;;23.32;58.23;100936.80;110886;1206;72512;-74
2021/09/14 10:57:59;;;;;;;11.30;3.40;;;;;;;23.38;58.33;100939.41;110881;1200;61992;-75
2021/09/14 11:00:33;;;;;;;7.50;3.50;;;;;;;23.49;58.29;100940.77;110963;1206;61914;-74
2021/09/14 11:03:10;;;;;;;4.90;3.40;;;;;;;23.59;57.06;100944.17;111045;1205;75314;-75
2021/09/14 11:05:37;;;;;;;5.70;3.40;;;;;;;23.65;56.83;100941.09;110877;1206;71158;-75
2021/09/14 11:08:08;;;;;;;4.20;2.80;;;;;;;23.67;55.89;100936.98;110882;1206;72749;-74
2021/09/14 11:10:38;;;;;;;4.10;3.10;;;;;;;23.75;56.21;100936.38;110887;1205;61895;-75
2021/09/14 11:13:07;;;;;;;8.80;4.30;;;;;;;23.84;56.43;100933.00;110922;1200;62184;-74
2021/09/14 11:15:34;;;;;;;5.00;3.20;;;;;;;23.93;55.66;100930.31;110907;1207;76358;-74
2021/09/14 11:18:01;;;;;;;7.00;3.80;;;;;;;24.03;54.56;100928.61;110963;1205;71172;-75
2021/09/14 11:20:30;;;;;;;4.60;3.10;;;;;;;24.10;55.27;100921.94;110787;1200;72671;-74
2021/09/14 11:22:59;;;;;;;6.00;3.30;;;;;;;24.24;56.03;100923.88;111052;1206;62801;-75
2021/09/14 11:25:28;;;;;;;5.20;3.70;;;;;;;24.34;54.33;100915.27;110880;1205;61902;-75
2021/09/14 11:27:57;;;;;;;4.70;2.90;;;;;;;24.37;54.65;100912.15;111030;1205;76405;-75
2021/09/14 11:30:25;;;;;;;18.30;16.10;;;;;;;24.48;54.67;100910.43;111903;1199;73459;-74
2021/09/14 11:32:52;;;;;;;4.00;3.30;;;;;;;24.58;53.56;100904.17;111047;1205;73749;-75
2021/09/14 11:35:19;;;;;;;5.00;3.20;;;;;;;24.71;54.56;100908.39;111005;1206;62756;-74
2021/09/14 11:38:01;;;;;;;5.70;3.30;;;;;;;24.86;53.63;100903.59;110992;1206;63001;-74
2021/09/14 11:40:29;;;;;;;5.00;3.50;;;;;;;24.99;52.88;100896.79;110946;1205;76544;-74
2021/09/14 11:42:57;;;;;;;5.40;3.70;;;;;;;25.12;52.41;100897.37;110941;1205;71647;-75
2021/09/14 11:45:26;;;;;;;8.70;4.50;;;;;;;25.32;53.06;100893.70;111105;1206;72508;-74
2021/09/14 11:47:54;;;;;;;14.30;11.50;;;;;;;25.67;51.43;100892.75;111081;1199;61884;-76
2021/09/14 11:50:36;;;;;;;6.70;4.40;;;;;;;26.15;51.19;100896.35;111069;1205;62897;-76
2021/09/14 11:53:10;;;;;;;12.90;8.60;;;;;;;26.56;49.41;100887.98;111237;1205;76588;-76
2021/09/14 11:55:46;;;;;;;6.30;3.10;;;;;;;27.04;48.57;100890.46;110964;1206;72116;-75
2021/09/14 11:58:15;;;;;;;4.10;2.40;;;;;;;27.43;46.86;100889.81;110882;1199;72930;-75
2021/09/14 12:00:46;;;;;;;5.00;2.80;;;;;;;27.81;45.41;100890.96;111026;1206;61947;-74
2021/09/14 12:03:18;;;;;;;3.70;2.30;;;;;;;28.29;44.47;100888.92;111006;1205;61918;-74
2021/09/14 12:05:55;;;;;;;2.90;2.00;;;;;;;28.67;41.96;100880.81;110876;1205;76436;-74
2021/09/14 12:08:34;;;;;;;3.90;2.60;;;;;;;28.92;41.54;100882.02;110957;1199;72752;-74
2021/09/14 12:11:03;;;;;;;4.10;2.60;;;;;;;29.29;41.40;100877.70;111112;1205;72573;-74
2021/09/14 12:13:41;;;;;;;2.80;2.00;;;;;;;29.59;40.72;100872.08;111049;1205;61849;-75
2021/09/14 12:16:18;;;;;;;4.20;2.30;;;;;;;29.51;39.76;100865.99;111061;1206;61935;-75
2021/09/14 12:18:45;;;;;;;2.30;1.80;;;;;;;29.79;40.30;100862.83;110948;1199;75338;-75